Suz'and — FAE8517 — position and weather

sailwx.info

Track history (hours):
 
Tides and Currents Weather Stations Pressure Air Temp Water Temp Dewpoint Dewpoint Depression Visibility Wind Speed Wind Dir Waves Ship Positions

Suz'and

Last reported at 2017-Sep-21 22:48 UTC. Time now 2017-Sep-22 19:15 UTC.
Position N 39°20' E 002°59'.

Length 13 m.

Type: Pleasure craft. MMSI: 227819050.

Date/timePositionNaut miles runAvg speedWind from/ knotsBaromVisibWave heightAir tempDewpointWater temp
2017-Sep-21 22:48N 39°20' E 002°59'0 0.0
2017-Sep-21 22:27N 39°20' E 002°59'0 0.0
2017-Sep-21 21:39N 39°20' E 002°59'0 0.0
2017-Sep-21 21:21N 39°20' E 002°59'0 0.0
2017-Sep-21 20:57N 39°20' E 002°59'0 0.0
2017-Sep-21 20:09N 39°20' E 002°59'0 0.0
2017-Sep-21 11:44N 39°20' E 002°59'0 0.0
2017-Sep-21 11:26N 39°20' E 002°59'2 1.7
2017-Sep-21 10:09N 39°22' E 002°57'1 6.1
2017-Sep-21 09:59N 39°21' E 002°58'1 1.4
2017-Sep-21 09:28N 39°20' E 002°59'0 0.0
2017-Sep-21 08:55N 39°20' E 002°59'0 0.0
2017-Sep-20 18:11N 39°20' E 002°59'0 0.0
2017-Sep-20 17:59N 39°20' E 002°59'0 0.1
2017-Sep-20 17:30N 39°20' E 002°59'2 3.3
2017-Sep-20 17:00N 39°19' E 002°60'4 8.3
2017-Sep-20 16:30N 39°17' E 002°55'4 9.1
2017-Sep-20 16:00N 39°16' E 002°49'4 7.5
2017-Sep-20 15:29N 39°14' E 002°45'4 7.0
2017-Sep-20 14:58N 39°13' E 002°40'7 7.2
2017-Sep-20 13:59N 39°11' E 002°32'3 7.1
2017-Sep-20 13:30N 39°10' E 002°27'5 7.1
2017-Sep-20 12:50N 39°08' E 002°22'2 7.1
2017-Sep-20 12:30N 39°07' E 002°19'4 7.1
2017-Sep-20 11:59N 39°06' E 002°14'3 7.1
2017-Sep-20 11:30N 39°05' E 002°10'4 7.1
2017-Sep-20 11:00N 39°04' E 002°06'4 7.1
2017-Sep-20 10:29N 39°03' E 002°01'25 6.7
2017-Sep-20 06:50N 38°55' E 001°31'2 7.3
2017-Sep-20 06:30N 38°54' E 001°28'1 2.6
2017-Sep-20 05:59N 38°55' E 001°27'0 0.2
2017-Sep-20 05:28N 38°55' E 001°27'0 0.0
2017-Sep-20 04:55N 38°55' E 001°27'0 0.0
2017-Sep-20 04:28N 38°55' E 001°27'0 0.0
2017-Sep-20 03:58N 38°55' E 001°27'0 0.0
2017-Sep-20 03:25N 38°55' E 001°27'  
2017-Sep-17 12:45N 37°45' W 000°28'2 7.1
2017-Sep-17 12:30N 37°44' W 000°30'4 7.0
2017-Sep-17 12:00N 37°42' W 000°34'4 6.8
2017-Sep-17 11:28N 37°39' W 000°37'3 6.5
2017-Sep-17 10:56N 37°37' W 000°41'5 6.5
2017-Sep-17 10:14N 37°35' W 000°46'  
Track history (hours):
 
Tides and Currents Weather Stations Pressure Air Temp Water Temp Dewpoint Dewpoint Depression Visibility Wind Speed Wind Dir Waves Ship Positions

Suz'and

Last reported at 2017-Sep-21 22:48 UTC. Time now 2017-Sep-22 19:15 UTC.
Position N 39°20' E 002°59'.

Length 13 m.

Type: Pleasure craft. MMSI: 227819050.

Date/timePositionNaut miles runAvg speedWind from/ knotsBaromVisibWave heightAir tempDewpointWater temp
2017-Sep-21 22:48N 39°20' E 002°59'0 0.0
2017-Sep-21 22:27N 39°20' E 002°59'0 0.0
2017-Sep-21 21:39N 39°20' E 002°59'0 0.0
2017-Sep-21 21:21N 39°20' E 002°59'0 0.0
2017-Sep-21 20:57N 39°20' E 002°59'0 0.0
2017-Sep-21 20:09N 39°20' E 002°59'0 0.0
2017-Sep-21 11:44N 39°20' E 002°59'0 0.0
2017-Sep-21 11:26N 39°20' E 002°59'2 1.7
2017-Sep-21 10:09N 39°22' E 002°57'1 6.1
2017-Sep-21 09:59N 39°21' E 002°58'1 1.4
2017-Sep-21 09:28N 39°20' E 002°59'0 0.0
2017-Sep-21 08:55N 39°20' E 002°59'0 0.0
2017-Sep-20 18:11N 39°20' E 002°59'0 0.0
2017-Sep-20 17:59N 39°20' E 002°59'0 0.1
2017-Sep-20 17:30N 39°20' E 002°59'2 3.3
2017-Sep-20 17:00N 39°19' E 002°60'4 8.3
2017-Sep-20 16:30N 39°17' E 002°55'4 9.1
2017-Sep-20 16:00N 39°16' E 002°49'4 7.5
2017-Sep-20 15:29N 39°14' E 002°45'4 7.0
2017-Sep-20 14:58N 39°13' E 002°40'7 7.2
2017-Sep-20 13:59N 39°11' E 002°32'3 7.1
2017-Sep-20 13:30N 39°10' E 002°27'5 7.1
2017-Sep-20 12:50N 39°08' E 002°22'2 7.1
2017-Sep-20 12:30N 39°07' E 002°19'4 7.1
2017-Sep-20 11:59N 39°06' E 002°14'3 7.1
2017-Sep-20 11:30N 39°05' E 002°10'4 7.1
2017-Sep-20 11:00N 39°04' E 002°06'4 7.1
2017-Sep-20 10:29N 39°03' E 002°01'25 6.7
2017-Sep-20 06:50N 38°55' E 001°31'2 7.3
2017-Sep-20 06:30N 38°54' E 001°28'1 2.6
2017-Sep-20 05:59N 38°55' E 001°27'0 0.2
2017-Sep-20 05:28N 38°55' E 001°27'0 0.0
2017-Sep-20 04:55N 38°55' E 001°27'0 0.0
2017-Sep-20 04:28N 38°55' E 001°27'0 0.0
2017-Sep-20 03:58N 38°55' E 001°27'0 0.0
2017-Sep-20 03:25N 38°55' E 001°27'  
2017-Sep-17 12:45N 37°45' W 000°28'2 7.1
2017-Sep-17 12:30N 37°44' W 000°30'4 7.0
2017-Sep-17 12:00N 37°42' W 000°34'4 6.8
2017-Sep-17 11:28N 37°39' W 000°37'3 6.5
2017-Sep-17 10:56N 37°37' W 000°41'5 6.5
2017-Sep-17 10:14N 37°35' W 000°46'  

Dump ship's entire track history